createdAt,value
2019-02-15T00:01:01.629Z,69.71
2019-02-15T00:03:32.117Z,69.80
2019-02-15T00:06:02.611Z,69.35
2019-02-15T00:08:33.135Z,69.33
2019-02-15T00:11:03.627Z,69.17
2019-02-15T00:13:34.225Z,68.93
2019-02-15T00:16:04.768Z,69.01
2019-02-15T00:18:41.482Z,68.71
2019-02-15T00:21:26.295Z,68.44
2019-02-15T00:23:56.775Z,68.40
2019-02-15T00:26:27.226Z,68.29
2019-02-15T00:28:57.676Z,69.12
2019-02-15T00:31:28.167Z,68.96
2019-02-15T00:33:58.611Z,69.81
2019-02-15T00:36:29.828Z,70.70
2019-02-15T00:39:00.262Z,70.95
2019-02-15T00:41:30.721Z,70.50
2019-02-15T00:44:01.215Z,69.89
2019-02-15T00:46:50.519Z,70.08
2019-02-15T00:49:31.120Z,69.61
2019-02-15T00:52:26.472Z,70.51
2019-02-15T00:55:18.581Z,69.77
2019-02-15T00:58:17.171Z,69.19
2019-02-15T01:00:58.870Z,68.79
2019-02-15T01:03:57.380Z,68.87
2019-02-15T01:06:45.381Z,69.12
2019-02-15T01:09:34.666Z,69.08
2019-02-15T01:12:14.903Z,68.29
2019-02-15T01:14:45.353Z,68.42
2019-02-15T01:17:15.801Z,68.27
2019-02-15T01:19:46.297Z,67.42
2019-02-15T01:22:16.749Z,67.26
2019-02-15T01:24:47.253Z,67.33
2019-02-15T01:27:51.596Z,67.60
2019-02-15T01:30:40.123Z,66.83
2019-02-15T01:33:28.028Z,67.29
2019-02-15T01:36:23.437Z,66.71
2019-02-15T01:39:09.619Z,66.55
2019-02-15T01:42:04.995Z,66.12
2019-02-15T01:44:57.102Z,65.59
2019-02-15T01:47:34.687Z,65.74
2019-02-15T01:50:05.538Z,66.37
2019-02-15T01:52:36.030Z,66.18
2019-02-15T01:55:06.755Z,66.46
2019-02-15T01:57:37.210Z,66.17
2019-02-15T02:00:10.064Z,66.35
2019-02-15T02:02:40.564Z,65.72
2019-02-15T02:05:11.099Z,66.34
2019-02-15T02:07:41.601Z,66.17
2019-02-15T02:10:12.683Z,66.55
2019-02-15T02:12:43.146Z,66.68
2019-02-15T02:15:13.723Z,66.89
2019-02-15T02:17:44.171Z,66.08
2019-02-15T02:20:14.799Z,66.16
2019-02-15T02:22:45.244Z,66.46
2019-02-15T02:25:15.762Z,66.69
2019-02-15T02:27:46.218Z,66.98
2019-02-15T02:30:16.816Z,67.02
2019-02-15T02:32:47.277Z,67.02
2019-02-15T02:35:17.736Z,66.92
2019-02-15T02:37:48.246Z,66.81
2019-02-15T02:40:18.719Z,67.30
2019-02-15T02:42:49.215Z,66.88
2019-02-15T02:45:19.728Z,66.12
2019-02-15T02:47:50.334Z,66.14
2019-02-15T02:50:20.790Z,66.26
2019-02-15T02:52:51.312Z,65.93
2019-02-15T02:55:21.769Z,65.51
2019-02-15T02:57:52.262Z,66.32
2019-02-15T03:00:22.721Z,66.86
2019-02-15T03:02:53.176Z,66.16
2019-02-15T03:05:23.697Z,66.11
2019-02-15T03:07:54.198Z,66.25
2019-02-15T03:10:24.757Z,65.93
2019-02-15T03:12:55.263Z,66.46
2019-02-15T03:15:25.721Z,66.73
2019-02-15T03:17:56.243Z,66.96
2019-02-15T03:20:31.183Z,66.16
2019-02-15T03:22:58.883Z,65.63
2019-02-15T03:25:29.395Z,66.52
2019-02-15T03:27:59.919Z,65.69
2019-02-15T03:30:30.432Z,66.04
2019-02-15T03:33:00.958Z,66.24
2019-02-15T03:35:31.481Z,67.10
2019-02-15T03:38:19.235Z,67.38
2019-02-15T03:40:52.944Z,67.46
2019-02-15T03:43:23.418Z,68.67
2019-02-15T03:45:54.076Z,68.94
2019-02-15T03:48:24.614Z,68.45
2019-02-15T03:50:55.242Z,68.44
2019-02-15T03:53:25.756Z,67.86
2019-02-15T03:55:56.478Z,67.38
2019-02-15T03:58:26.943Z,68.63
2019-02-15T04:00:57.572Z,68.48
2019-02-15T04:03:30.960Z,68.52
2019-02-15T04:06:01.445Z,68.90
2019-02-15T04:08:31.952Z,68.68
2019-02-15T04:11:02.431Z,68.89
2019-02-15T04:13:32.949Z,69.13
2019-02-15T04:16:03.470Z,69.07
2019-02-15T04:18:33.935Z,69.56
2019-02-15T04:21:04.430Z,69.27
2019-02-15T04:23:34.968Z,68.51
2019-02-15T04:26:05.449Z,68.35
2019-02-15T04:28:35.956Z,68.11
2019-02-15T04:31:06.475Z,67.71
2019-02-15T04:33:36.990Z,67.69
2019-02-15T04:36:07.622Z,67.53
2019-02-15T04:38:38.118Z,68.34
2019-02-15T04:41:08.639Z,68.20
2019-02-15T04:43:39.160Z,68.26
2019-02-15T04:46:09.624Z,68.36
2019-02-15T04:48:40.134Z,68.85
2019-02-15T04:51:10.653Z,68.85
2019-02-15T04:53:41.112Z,68.78
2019-02-15T04:56:11.680Z,69.14
2019-02-15T04:58:42.197Z,69.68
2019-02-15T05:01:12.665Z,69.96
2019-02-15T05:03:43.177Z,70.00
2019-02-15T05:06:13.664Z,69.49
2019-02-15T05:08:44.116Z,68.97
2019-02-15T05:11:14.635Z,68.96
2019-02-15T05:13:45.111Z,69.24
2019-02-15T05:16:15.633Z,69.65
2019-02-15T05:18:46.141Z,69.50
2019-02-15T05:21:16.627Z,68.90
2019-02-15T05:23:47.145Z,69.24
2019-02-15T05:26:17.609Z,69.24
2019-02-15T05:28:48.107Z,68.71
2019-02-15T05:31:18.612Z,68.54
2019-02-15T05:33:49.126Z,68.33
2019-02-15T05:36:19.564Z,68.67
2019-02-15T05:38:50.046Z,68.21
2019-02-15T05:41:20.543Z,68.66
2019-02-15T05:43:51.016Z,68.98
2019-02-15T05:46:21.533Z,68.78
2019-02-15T05:48:51.995Z,68.55
2019-02-15T05:51:22.470Z,67.88
2019-02-15T05:53:53.147Z,67.95
2019-02-15T05:56:23.661Z,67.94
2019-02-15T05:58:54.205Z,67.83
2019-02-15T06:01:25.905Z,67.46
2019-02-15T06:03:56.374Z,67.62
2019-02-15T06:06:26.903Z,66.85
2019-02-15T06:08:57.394Z,66.59
2019-02-15T06:11:27.893Z,66.53
2019-02-15T06:13:58.417Z,66.07
2019-02-15T06:16:28.865Z,65.78
2019-02-15T06:18:59.336Z,66.11
2019-02-15T06:21:29.849Z,65.84
2019-02-15T06:24:00.365Z,65.54
2019-02-15T06:26:30.837Z,65.36
2019-02-15T06:29:01.346Z,65.91
2019-02-15T06:31:31.838Z,65.76
2019-02-15T06:34:02.365Z,66.04
2019-02-15T06:36:36.142Z,65.34
2019-02-15T06:39:08.800Z,65.61
2019-02-15T06:41:39.359Z,65.45
2019-02-15T06:44:09.872Z,65.21
2019-02-15T06:46:40.527Z,64.86
2019-02-15T06:49:11.061Z,64.87
2019-02-15T06:51:41.540Z,64.93
2019-02-15T06:54:12.080Z,64.72
2019-02-15T06:56:42.607Z,64.86
2019-02-15T06:59:35.161Z,64.62
2019-02-15T07:02:28.986Z,64.88
2019-02-15T07:05:30.589Z,63.91
2019-02-15T07:08:01.133Z,64.76
2019-02-15T07:10:31.678Z,64.30
2019-02-15T07:13:02.183Z,64.47
2019-02-15T07:15:33.978Z,64.39
2019-02-15T07:18:04.598Z,64.37
2019-02-15T07:20:35.047Z,64.19
2019-02-15T07:23:05.508Z,63.80
2019-02-15T07:25:36.069Z,63.63
2019-02-15T07:28:06.546Z,63.12
2019-02-15T07:30:37.060Z,63.41
2019-02-15T07:33:07.610Z,62.84
2019-02-15T07:35:38.064Z,62.31
2019-02-15T07:38:08.614Z,61.51
2019-02-15T07:40:39.064Z,61.49
2019-02-15T07:43:09.683Z,61.96
2019-02-15T07:45:42.903Z,61.47
2019-02-15T07:48:12.431Z,62.08
2019-02-15T07:50:42.998Z,62.55
2019-02-15T07:53:13.512Z,61.95
2019-02-15T07:55:43.977Z,62.93
2019-02-15T07:58:14.495Z,62.62
2019-02-15T08:00:45.022Z,62.36
2019-02-15T08:03:15.479Z,63.54
2019-02-15T08:05:46.002Z,63.18
2019-02-15T08:08:16.490Z,62.97
2019-02-15T08:10:46.983Z,65.28
2019-02-15T08:13:17.451Z,64.07
2019-02-15T08:15:52.128Z,64.36
2019-02-15T08:18:20.128Z,64.31
2019-02-15T08:20:50.629Z,63.58
2019-02-15T08:23:21.151Z,63.67
2019-02-15T08:25:51.632Z,64.45
2019-02-15T08:28:22.161Z,63.07
2019-02-15T08:30:52.659Z,63.90
2019-02-15T08:33:23.212Z,64.87
2019-02-15T08:35:53.690Z,63.69
2019-02-15T08:38:24.209Z,63.43
2019-02-15T08:40:54.683Z,63.47
2019-02-15T08:43:25.246Z,62.67
2019-02-15T08:46:00.685Z,62.17
2019-02-15T08:48:27.936Z,62.27
2019-02-15T08:50:58.448Z,62.70
2019-02-15T08:53:28.916Z,63.18
2019-02-15T08:55:59.424Z,63.07
2019-02-15T08:58:29.984Z,63.21
2019-02-15T09:01:00.493Z,63.19
2019-02-15T09:03:31.131Z,63.16
2019-02-15T09:06:01.636Z,63.18
2019-02-15T09:08:32.096Z,63.37
2019-02-15T09:11:02.631Z,64.38
2019-02-15T09:13:33.272Z,64.58
2019-02-15T09:16:10.101Z,63.80
2019-02-15T09:18:35.988Z,63.80
2019-02-15T09:21:06.495Z,64.33
2019-02-15T09:23:36.964Z,64.33
2019-02-15T09:26:07.474Z,63.92
2019-02-15T09:28:44.772Z,64.39
2019-02-15T09:31:15.327Z,64.07
2019-02-15T09:33:45.807Z,64.01
2019-02-15T09:36:16.342Z,63.72
2019-02-15T09:38:47.044Z,63.35
2019-02-15T09:41:17.512Z,63.81
2019-02-15T09:43:48.076Z,63.20
2019-02-15T09:46:20.263Z,62.54
2019-02-15T09:48:50.862Z,62.33
2019-02-15T09:51:21.324Z,62.71
2019-02-15T09:53:51.902Z,62.14
2019-02-15T09:56:22.427Z,61.92
2019-02-15T09:58:53.024Z,61.28
2019-02-15T10:01:23.705Z,60.95
2019-02-15T10:03:55.304Z,60.72
2019-02-15T10:06:25.839Z,60.28
2019-02-15T10:08:56.344Z,59.17
2019-02-15T10:11:26.826Z,58.43
2019-02-15T10:13:57.440Z,57.72
2019-02-15T10:16:30.828Z,58.11
2019-02-15T10:19:00.140Z,57.44
2019-02-15T10:21:30.615Z,58.12
2019-02-15T10:24:01.120Z,57.45
2019-02-15T10:26:31.632Z,57.17
2019-02-15T10:29:02.111Z,56.27
2019-02-15T10:31:32.837Z,56.49
2019-02-15T10:34:04.584Z,55.82
2019-02-15T10:36:35.115Z,56.74
2019-02-15T10:39:06.822Z,55.86
2019-02-15T10:41:37.394Z,54.94
2019-02-15T10:44:07.959Z,53.28
2019-02-15T10:46:38.468Z,53.52
2019-02-15T10:49:08.980Z,53.18
2019-02-15T10:51:46.261Z,54.12
2019-02-15T10:54:16.760Z,54.37
2019-02-15T10:56:47.225Z,52.93
2019-02-15T10:59:17.739Z,53.31
2019-02-15T11:01:48.279Z,53.54
2019-02-15T11:04:18.745Z,53.27
2019-02-15T11:06:51.768Z,53.02
2019-02-15T11:09:22.264Z,53.00
2019-02-15T11:11:52.724Z,52.69
2019-02-15T11:14:23.197Z,52.00
2019-02-15T11:16:53.650Z,53.00
2019-02-15T11:19:24.163Z,52.90
2019-02-15T11:21:54.752Z,52.08
2019-02-15T11:24:25.294Z,51.88
2019-02-15T11:26:55.777Z,52.26
2019-02-15T11:29:26.280Z,52.65
2019-02-15T11:31:56.776Z,51.99
2019-02-15T11:34:27.940Z,52.78
2019-02-15T11:36:58.503Z,52.10
2019-02-15T11:39:28.967Z,51.45
2019-02-15T11:41:59.595Z,51.42
2019-02-15T11:44:30.261Z,53.24
2019-02-15T11:47:00.785Z,52.36
2019-02-15T11:49:31.292Z,52.46
2019-02-15T11:52:01.812Z,52.11
2019-02-15T11:54:32.295Z,52.88
2019-02-15T11:57:02.839Z,51.94
2019-02-15T11:59:33.600Z,51.07
2019-02-15T12:02:06.531Z,51.15
2019-02-15T12:04:36.279Z,50.70
2019-02-15T12:07:06.815Z,52.46
2019-02-15T12:09:37.342Z,51.80
2019-02-15T12:12:10.656Z,50.72
2019-02-15T12:14:40.075Z,51.12
2019-02-15T12:17:10.543Z,49.73
2019-02-15T12:19:41.073Z,47.24
2019-02-15T12:22:11.522Z,46.76
2019-02-15T12:24:42.028Z,46.45
2019-02-15T12:27:12.523Z,45.82
2019-02-15T12:29:43.049Z,46.43
2019-02-15T12:32:13.552Z,46.90
2019-02-15T12:34:44.144Z,46.43
2019-02-15T12:37:14.663Z,47.60
2019-02-15T12:39:45.444Z,46.14
2019-02-15T12:42:15.983Z,46.95
2019-02-15T12:44:46.500Z,46.67
2019-02-15T12:47:17.005Z,45.72
2019-02-15T12:49:47.458Z,45.91
2019-02-15T12:52:17.988Z,46.14
2019-02-15T12:54:49.493Z,45.88
2019-02-15T12:57:20.057Z,45.52
2019-02-15T12:59:50.528Z,46.35
2019-02-15T13:02:21.041Z,45.85
2019-02-15T13:04:51.553Z,47.30
2019-02-15T13:07:22.047Z,47.88
2019-02-15T13:09:52.632Z,46.57
2019-02-15T13:12:23.174Z,46.01
2019-02-15T13:14:53.647Z,45.94
2019-02-15T13:17:24.986Z,46.81
2019-02-15T13:19:55.692Z,46.05
2019-02-15T13:22:26.199Z,46.12
2019-02-15T13:24:56.784Z,46.49
2019-02-15T13:27:27.297Z,47.16
2019-02-15T13:29:57.906Z,47.47
2019-02-15T13:32:28.409Z,47.78
2019-02-15T13:34:58.868Z,47.24
2019-02-15T13:37:29.380Z,47.88
2019-02-15T13:39:59.907Z,47.96
2019-02-15T13:42:30.548Z,46.89
2019-02-15T13:45:01.177Z,47.10
2019-02-15T13:47:34.700Z,46.80
2019-02-15T13:50:04.050Z,46.49
2019-02-15T13:52:34.578Z,46.82
2019-02-15T13:55:05.245Z,47.46
2019-02-15T13:57:35.808Z,47.91
2019-02-15T14:00:06.752Z,48.10
2019-02-15T14:02:37.224Z,47.40
2019-02-15T14:05:09.691Z,47.50
2019-02-15T14:07:40.499Z,47.55
2019-02-15T14:10:14.917Z,47.96
2019-02-15T14:12:45.471Z,47.94
2019-02-15T14:15:15.961Z,48.26
2019-02-15T14:17:48.445Z,49.48
2019-02-15T14:20:18.936Z,48.18
2019-02-15T14:22:49.414Z,48.48
2019-02-15T14:25:19.921Z,48.53
2019-02-15T14:27:50.475Z,47.84
2019-02-15T14:30:20.943Z,47.63
2019-02-15T14:32:51.441Z,48.64
2019-02-15T14:35:21.984Z,48.90
2019-02-15T14:37:52.466Z,49.02
2019-02-15T14:40:22.993Z,48.89
2019-02-15T14:42:53.478Z,47.45
2019-02-15T14:45:24.026Z,48.01
2019-02-15T14:47:55.516Z,48.44
2019-02-15T14:50:26.017Z,48.50
2019-02-15T14:52:56.573Z,48.33
2019-02-15T14:55:27.304Z,48.63
2019-02-15T14:57:57.851Z,48.45
2019-02-15T15:00:28.773Z,48.83
2019-02-15T15:02:59.320Z,49.23
2019-02-15T15:05:29.835Z,49.06
2019-02-15T15:08:00.388Z,49.49
2019-02-15T15:10:30.947Z,49.12
2019-02-15T15:13:01.622Z,48.29
2019-02-15T15:15:32.143Z,48.27
2019-02-15T15:18:12.703Z,46.72
2019-02-15T15:20:36.320Z,47.68
2019-02-15T15:23:06.861Z,47.75
2019-02-15T15:25:37.373Z,47.61
2019-02-15T15:28:07.958Z,47.96
2019-02-15T15:30:38.519Z,47.90
2019-02-15T15:33:09.071Z,48.27
2019-02-15T15:35:41.992Z,47.68
2019-02-15T15:38:12.490Z,48.31
2019-02-15T15:40:42.946Z,48.17
2019-02-15T15:43:13.448Z,48.27
2019-02-15T15:45:43.922Z,48.53
2019-02-15T15:48:22.449Z,48.66
2019-02-15T15:50:46.648Z,49.06
2019-02-15T15:53:17.119Z,49.13
2019-02-15T15:55:47.653Z,49.11
2019-02-15T15:58:18.137Z,49.59
2019-02-15T16:00:48.772Z,49.63
2019-02-15T16:03:19.256Z,49.68
2019-02-15T16:05:49.767Z,49.66
2019-02-15T16:08:20.218Z,49.57
2019-02-15T16:10:50.722Z,49.97
2019-02-15T16:13:21.243Z,50.21
2019-02-15T16:15:51.756Z,50.31
2019-02-15T16:18:22.225Z,50.45
2019-02-15T16:20:52.716Z,50.37
2019-02-15T16:23:23.222Z,50.50
2019-02-15T16:25:53.687Z,50.73
2019-02-15T16:28:24.190Z,50.74
2019-02-15T16:30:54.701Z,51.08
2019-02-15T16:33:25.256Z,50.92
2019-02-15T16:35:55.717Z,51.06
2019-02-15T16:38:26.202Z,51.28
2019-02-15T16:40:56.660Z,51.40
2019-02-15T16:43:27.165Z,51.59
2019-02-15T16:45:57.638Z,51.60
2019-02-15T16:48:28.122Z,51.75
2019-02-15T16:50:58.567Z,51.79
2019-02-15T16:53:29.075Z,51.54
2019-02-15T16:55:59.523Z,51.54
2019-02-15T16:58:30.131Z,51.58
2019-02-15T17:01:00.637Z,51.58
2019-02-15T17:03:31.146Z,51.38
2019-02-15T17:06:01.656Z,51.62
2019-02-15T17:08:32.156Z,51.81
2019-02-15T17:11:02.734Z,51.86
2019-02-15T17:13:34.680Z,51.11
2019-02-15T17:16:05.223Z,51.37
2019-02-15T17:18:35.728Z,50.84
2019-02-15T17:21:06.196Z,50.88
2019-02-15T17:23:36.698Z,50.57
2019-02-15T17:26:07.154Z,50.81
2019-02-15T17:28:39.404Z,50.78
2019-02-15T17:31:09.892Z,50.83
2019-02-15T17:33:40.399Z,50.71
2019-02-15T17:36:10.875Z,50.56
2019-02-15T17:38:42.942Z,51.05
2019-02-15T17:41:13.519Z,50.78
2019-02-15T17:43:43.972Z,51.22
2019-02-15T17:46:14.468Z,51.02
2019-02-15T17:48:44.929Z,51.04
2019-02-15T17:51:15.381Z,51.13
2019-02-15T17:53:45.883Z,51.50
2019-02-15T17:56:17.143Z,51.46
2019-02-15T17:58:47.658Z,51.51
2019-02-15T18:01:18.118Z,51.75
2019-02-15T18:03:48.617Z,52.07
2019-02-15T18:06:19.080Z,53.02
2019-02-15T18:08:49.600Z,52.52
2019-02-15T18:11:20.059Z,52.35
2019-02-15T18:13:50.572Z,52.30
2019-02-15T18:16:21.029Z,52.23
2019-02-15T18:18:51.495Z,52.30
2019-02-15T18:21:21.984Z,51.99
2019-02-15T18:23:52.456Z,52.03
2019-02-15T18:26:22.965Z,51.93
2019-02-15T18:28:53.464Z,52.01
2019-02-15T18:31:23.933Z,51.33
2019-02-15T18:33:54.435Z,51.37
2019-02-15T18:36:24.891Z,51.52
2019-02-15T18:38:55.406Z,51.07
2019-02-15T18:41:25.852Z,51.06
2019-02-15T18:43:56.304Z,51.15
2019-02-15T18:46:26.796Z,50.67
2019-02-15T18:48:57.247Z,50.03
2019-02-15T18:51:27.801Z,51.01
2019-02-15T18:53:58.257Z,52.06
2019-02-15T18:56:28.776Z,51.63
2019-02-15T18:58:59.242Z,50.96
2019-02-15T19:01:29.755Z,50.42
2019-02-15T19:04:00.274Z,50.89
2019-02-15T19:06:30.719Z,50.73
2019-02-15T19:09:01.226Z,50.36
2019-02-15T19:11:31.757Z,50.42
2019-02-15T19:14:04.768Z,50.54
2019-02-15T19:16:34.372Z,50.77
2019-02-15T19:19:05.927Z,50.60
2019-02-15T19:21:36.443Z,50.83
2019-02-15T19:24:06.913Z,50.84
2019-02-15T19:26:37.394Z,50.76
2019-02-15T19:29:08.155Z,51.18
2019-02-15T19:31:38.681Z,50.95
2019-02-15T19:34:09.258Z,51.00
2019-02-15T19:36:39.716Z,51.06
2019-02-15T19:39:10.220Z,51.27
2019-02-15T19:41:40.792Z,51.62
2019-02-15T19:44:11.285Z,51.85
2019-02-15T19:46:41.783Z,51.59
2019-02-15T19:49:12.285Z,51.79
2019-02-15T19:51:42.789Z,51.48
2019-02-15T19:54:13.333Z,52.30
2019-02-15T19:56:43.852Z,52.56
2019-02-15T19:59:14.319Z,51.74
2019-02-15T20:01:44.834Z,51.68
2019-02-15T20:04:15.341Z,51.55
2019-02-15T20:06:45.804Z,51.96
2019-02-15T20:09:16.320Z,51.94
2019-02-15T20:11:47.068Z,52.17
2019-02-15T20:14:17.602Z,52.40
2019-02-15T20:16:48.058Z,52.83
2019-02-15T20:19:18.519Z,52.54
2019-02-15T20:21:49.092Z,52.54
2019-02-15T20:24:19.588Z,52.53
2019-02-15T20:26:50.049Z,51.97
2019-02-15T20:29:20.520Z,52.03
2019-02-15T20:31:50.984Z,52.46
2019-02-15T20:34:21.485Z,52.90
2019-02-15T20:36:52.029Z,52.90
2019-02-15T20:39:22.487Z,53.21
2019-02-15T20:41:52.977Z,53.12
2019-02-15T20:44:23.425Z,53.09
2019-02-15T20:46:53.927Z,53.09
2019-02-15T20:49:24.434Z,52.93
2019-02-15T20:51:54.898Z,53.28
2019-02-15T20:54:25.392Z,53.18
2019-02-15T20:56:55.906Z,52.79
2019-02-15T20:59:26.415Z,53.57
2019-02-15T21:01:56.945Z,53.64
2019-02-15T21:04:27.402Z,53.49
2019-02-15T21:06:57.924Z,53.54
2019-02-15T21:09:28.441Z,53.58
2019-02-15T21:11:58.955Z,53.75
2019-02-15T21:14:29.430Z,53.51
2019-02-15T21:16:59.946Z,54.26
2019-02-15T21:19:30.452Z,54.13
2019-02-15T21:22:00.923Z,53.87
2019-02-15T21:24:31.417Z,53.69
2019-02-15T21:27:01.862Z,53.19
2019-02-15T21:29:32.376Z,53.08
2019-02-15T21:32:02.979Z,52.74
2019-02-15T21:34:33.518Z,52.68
2019-02-15T21:37:03.974Z,52.71
2019-02-15T21:39:34.430Z,52.37
2019-02-15T21:42:04.923Z,52.90
2019-02-15T21:44:35.376Z,52.63
2019-02-15T21:47:05.876Z,52.28
2019-02-15T21:49:38.397Z,52.19
2019-02-15T21:52:08.614Z,52.35
2019-02-15T21:54:39.063Z,52.63
2019-02-15T21:57:09.671Z,52.49
2019-02-15T21:59:40.162Z,52.39
2019-02-15T22:02:10.771Z,52.82
2019-02-15T22:04:41.276Z,52.59
2019-02-15T22:07:11.820Z,52.61
2019-02-15T22:09:42.273Z,52.58
2019-02-15T22:12:12.733Z,53.03
2019-02-15T22:14:43.233Z,52.44
2019-02-15T22:17:13.676Z,53.00
2019-02-15T22:19:44.174Z,53.23
2019-02-15T22:22:14.605Z,53.69
2019-02-15T22:24:45.010Z,53.78
2019-02-15T22:27:15.512Z,54.12
2019-02-15T22:29:45.926Z,54.17
2019-02-15T22:32:16.429Z,54.28
2019-02-15T22:34:46.955Z,54.12
2019-02-15T22:37:17.408Z,53.76
2019-02-15T22:39:47.948Z,54.01
2019-02-15T22:42:18.415Z,54.07
2019-02-15T22:44:48.926Z,53.50
2019-02-15T22:47:19.380Z,53.67
2019-02-15T22:49:49.984Z,53.78
2019-02-15T22:52:20.489Z,53.93
2019-02-15T22:54:50.951Z,53.91
2019-02-15T22:57:21.409Z,53.68
2019-02-15T22:59:54.612Z,53.99
2019-02-15T23:02:24.007Z,54.18
2019-02-15T23:04:54.450Z,54.38
2019-02-15T23:07:24.858Z,54.08
2019-02-15T23:09:55.366Z,54.54
2019-02-15T23:12:25.840Z,54.11
2019-02-15T23:14:56.287Z,54.19
2019-02-15T23:17:26.738Z,54.42
2019-02-15T23:19:57.236Z,53.84
2019-02-15T23:22:27.707Z,53.81
2019-02-15T23:24:58.288Z,53.44
2019-02-15T23:27:28.785Z,53.17
2019-02-15T23:29:59.261Z,53.21
2019-02-15T23:32:29.768Z,54.18
2019-02-15T23:35:00.324Z,52.89
2019-02-15T23:37:30.803Z,52.76
2019-02-15T23:40:01.310Z,52.29
2019-02-15T23:42:31.823Z,52.35
2019-02-15T23:45:02.322Z,52.70
2019-02-15T23:47:32.782Z,53.46
2019-02-15T23:50:03.243Z,53.25
2019-02-15T23:52:33.751Z,53.34
2019-02-15T23:55:04.311Z,53.21
2019-02-15T23:57:34.808Z,53.71
